• Join FlightAware (Why Join?)
  • Login
  • US Flag 
02:22AM EDT


 

Airport Tracker/Info


-or-


 

Live Flight TrackerFlight Track Log ✈ FDX1908 ✈ 15-Aug-2013 ✈ KSYR - KEWR

Flight Track Log - Related Links

Times and Time Zones

All times are in EDT time to prevent confusion due to time zone crossing. See the FDX1908 flight status page for this flight to view local times or setup timezone preferences in your user account.

Time Position Orientation Groundspeed Altitude Reporting Facility
EDT Latitude Longitude Course Direction KTS MPH feet Rate Location/Type
10:17PM 43.1090 -76.0960 86° East 167 192 900  Level FlightAware
10:17PM 43.1110 -76.0730 83° East 172 198 2,300 3,120 Climbing FlightAware
10:17PM 43.1010 -76.0430 115° Southeast 212 244 3,500 2,640 Climbing FlightAware
10:17PM 43.0930 -76.0360 147° Southeast 225 259 3,900 2,820 Climbing FlightAware
10:18PM 43.0860 -76.0320 157° South 234 269 4,300 3,600 Climbing FlightAware
10:18PM 43.0640 -76.0230 163° South 250 288 5,600 3,840 Climbing FlightAware
10:18PM 43.0400 -76.0160 168° South 272 313 6,800 4,200 Climbing FlightAware
10:19PM 43.0150 -76.0050 162° South 279 321 8,400 4,320 Climbing FlightAware
10:19PM 42.9670 -75.9840 162° South 300 345 11,000 3,180 Climbing FlightAware
10:20PM 42.9260 -75.9660 162° South 352 405 11,900 2,040 Climbing FlightAware
10:20PM 42.8750 -75.9150 144° Southeast 401 461 13,200 2,820 Climbing FlightAware
10:21PM 42.8280 -75.8650 142° Southeast 415 478 15,100 3,060 Climbing FlightAware
10:21PM 42.7700 -75.8110 146° Southeast 429 494 16,700 1,380 Climbing FlightAware
10:22PM 42.7050 -75.7630 152° Southeast 434 499 16,800 60 Climbing FlightAware
10:23PM 42.6570 -75.7180 145° Southeast 432 497 16,800 60 Level FlightAware
10:23PM 42.6060 -75.6460 134° Southeast 433 498 16,900 60 Climbing FlightAware
10:24PM 42.5570 -75.5740 133° Southeast 434 499 16,900  Level FlightAware
10:24PM 42.5120 -75.5070 132° Southeast 434 499 16,900  Level FlightAware
10:25PM 42.4630 -75.4320 132° Southeast 434 499 16,900  Level FlightAware
10:26PM 42.4140 -75.3600 133° Southeast 435 501 16,900  Level FlightAware
10:26PM 42.3640 -75.2860 132° Southeast 433 498 16,900  Level FlightAware
10:27PM 42.3230 -75.2240 132° Southeast 433 498 16,900  Level FlightAware
10:27PM 42.2800 -75.1610 133° Southeast 433 498 16,900  Level FlightAware
10:28PM 42.2390 -75.0990 132° Southeast 433 498 16,900  Level FlightAware
10:29PM 42.1980 -75.0380 132° Southeast 433 498 16,900  Level FlightAware
10:29PM 42.1570 -74.9760 132° Southeast 433 498 16,900  Level FlightAware
10:30PM 42.0108 -74.8067 132° Southeast 436 502 17,000 -60 Climbing Boston Center
10:31PM 41.9164 -74.7392 152° Southeast 430 495 16,800 -1,380 Descending Boston Center
10:32PM 41.8033 -74.6597 152° Southeast 423 487 14,300 -2,580 Descending Boston Center
10:33PM 41.7169 -74.5983 152° Southeast 408 470 11,700 -1,980 Descending Boston Center
10:34PM 41.6183 -74.5283 152° Southeast 382 440 10,400 -960 Descending Boston Center
10:35PM 41.5483 -74.4817 153° Southeast 335 386 9,800 -1,080 Descending Boston Center
10:36PM 41.4742 -74.4294 152° Southeast 294 338 8,300 -780 Descending Boston Center
10:42PM 41.0600 -74.2470 152° Southeast 271 312 4,300 -660 Descending FlightAware
10:43PM 41.0370 -74.2270 147° Southeast 271 312 4,300 -420 Level FlightAware
10:44PM 40.9844 -74.1807 146° Southeast 260 299 3,800 -540 Descending FlightAware ADS-B
10:44PM 40.9688 -74.1675 147° Southeast 260 299 3,800 -600 Level FlightAware ADS-B
10:44PM 40.9534 -74.1535 146° Southeast 258 297 3,500 -1,020 Descending FlightAware ADS-B
10:44PM 40.9378 -74.1403 147° Southeast 261 300 3,300 -600 Descending FlightAware ADS-B
10:45PM 40.9220 -74.1262 146° Southeast 260 299 3,200 -420 Descending FlightAware ADS-B
10:45PM 40.9067 -74.1131 147° Southeast 257 296 3,100 -420 Descending FlightAware ADS-B
10:45PM 40.8917 -74.1002 147° Southeast 256 295 3,000 -480 Descending FlightAware ADS-B
10:45PM 40.8812 -74.0908 146° Southeast 255 293 2,900 -900 Descending FlightAware ADS-B
10:45PM 40.8775 -74.0886 156° South 253 291 2,800 -600 Descending FlightAware ADS-B
10:46PM 40.8699 -74.0849 160° South 250 288 2,800  Level FlightAware ADS-B
10:46PM 40.8660 -74.0839 169° South 251 289 2,800 -600 Level FlightAware ADS-B
10:46PM 40.8586 -74.0826 172° South 251 289 2,700 -900 Descending FlightAware ADS-B
10:46PM 40.8414 -74.0810 176° South 240 276 2,500 -900 Descending FlightAware ADS-B
10:46PM 40.8354 -74.0806 177° South 232 267 2,400 -600 Descending FlightAware ADS-B
10:46PM 40.8313 -74.0808 182° South 225 259 2,400  Level FlightAware ADS-B
10:46PM 40.8278 -74.0817 191° South 219 252 2,400  Level FlightAware ADS-B
10:46PM 40.8238 -74.0831 195° South 213 245 2,400  Level FlightAware ADS-B
10:46PM 40.8178 -74.0859 199° South 205 236 2,400 -420 Level FlightAware ADS-B
10:47PM 40.8111 -74.0891 200° South 193 222 2,300 -960 Descending FlightAware ADS-B
10:47PM 40.7976 -74.0976 205° Southwest 193 222 2,000 -1,140 Descending FlightAware ADS-B
10:47PM 40.7865 -74.1049 206° Southwest 174 200 1,700 -1,020 Descending FlightAware ADS-B
10:47PM 40.7759 -74.1115 205° Southwest 162 186 1,500 -840 Descending FlightAware ADS-B
10:48PM 40.7661 -74.1176 205° Southwest 151 174 1,300 -780 Descending FlightAware ADS-B
10:48PM 40.7565 -74.1238 206° Southwest 142 163 1,100 -780 Descending FlightAware ADS-B
10:48PM 40.7465 -74.1303 206° Southwest 141 162 900 -780 Descending FlightAware ADS-B
10:48PM 40.7375 -74.1361 206° Southwest 132 152 700 -780 Descending FlightAware ADS-B
10:49PM 40.7298 -74.1410 206° Southwest 121 139 500 -840 Descending FlightAware ADS-B
10:50PM 40.7044 -74.1571 206° Southwest 120 138 -600 Descending FlightAware ADS-B
10:50PM 40.6917 -74.1651 206° Southwest 105 121  Level FlightAware ADS-B